createdAt,value
2017-06-13T00:00:47.492Z,101107
2017-06-13T00:03:15.699Z,101110
2017-06-13T00:05:43.850Z,101115
2017-06-13T00:08:12.016Z,101113
2017-06-13T00:10:40.428Z,101114
2017-06-13T00:13:08.593Z,101119
2017-06-13T00:15:36.742Z,101123
2017-06-13T00:18:04.918Z,101116
2017-06-13T00:20:33.066Z,101119
2017-06-13T00:23:02.000Z,101113
2017-06-13T00:25:30.178Z,101121
2017-06-13T00:27:58.325Z,101115
2017-06-13T00:30:26.492Z,101115
2017-06-13T00:32:54.682Z,101119
2017-06-13T00:35:22.852Z,101116
2017-06-13T00:37:51.009Z,101118
2017-06-13T00:40:19.493Z,101108
2017-06-13T00:42:48.424Z,101114
2017-06-13T00:45:16.573Z,101109
2017-06-13T00:47:44.765Z,101113
2017-06-13T00:50:12.932Z,101112
2017-06-13T00:52:41.089Z,101113
2017-06-13T00:55:09.269Z,101124
2017-06-13T00:57:37.442Z,101107
2017-06-13T01:00:05.611Z,101121
2017-06-13T01:02:33.912Z,101114
2017-06-13T01:05:02.060Z,101115
2017-06-13T01:07:30.207Z,101119
2017-06-13T01:09:58.401Z,101111
2017-06-13T01:12:27.336Z,101103
2017-06-13T01:14:55.505Z,101105
2017-06-13T01:17:23.701Z,101110
2017-06-13T01:19:51.849Z,101112
2017-06-13T01:22:20.018Z,101110
2017-06-13T01:24:48.214Z,101107
2017-06-13T01:27:16.389Z,101111
2017-06-13T01:29:44.542Z,101117
2017-06-13T01:32:12.733Z,101110
2017-06-13T01:34:40.901Z,101102
2017-06-13T01:37:09.081Z,101093
2017-06-13T01:39:37.262Z,101099
2017-06-13T01:42:05.413Z,101092
2017-06-13T01:44:33.562Z,101101
2017-06-13T01:47:02.510Z,101089
2017-06-13T01:49:30.658Z,101100
2017-06-13T01:51:58.848Z,101100
2017-06-13T01:54:27.049Z,101104
2017-06-13T01:56:55.195Z,101094
2017-06-13T01:59:23.350Z,101106
2017-06-13T02:01:51.522Z,101107
2017-06-13T02:04:19.688Z,101099
2017-06-13T02:06:47.856Z,101099
2017-06-13T02:09:16.832Z,101086
2017-06-13T02:11:45.761Z,101096
2017-06-13T02:14:13.933Z,101089
2017-06-13T02:16:42.128Z,101086
2017-06-13T02:19:10.293Z,101104
2017-06-13T02:21:38.461Z,101104
2017-06-13T02:24:06.663Z,101100
2017-06-13T02:26:34.829Z,101102
2017-06-13T02:29:03.001Z,101107
2017-06-13T02:31:31.191Z,101102
2017-06-13T02:33:59.357Z,101093
2017-06-13T02:36:27.504Z,101110
2017-06-13T02:38:55.701Z,101117
2017-06-13T02:41:23.849Z,101112
2017-06-13T02:43:51.993Z,101113
2017-06-13T02:46:20.951Z,101119
2017-06-13T02:48:49.119Z,101114
2017-06-13T02:51:17.293Z,101113
2017-06-13T02:53:45.478Z,101112
2017-06-13T02:56:13.647Z,101124
2017-06-13T02:58:41.815Z,101114
2017-06-13T03:01:10.015Z,101115
2017-06-13T03:03:38.192Z,101095
2017-06-13T03:06:06.349Z,101113
2017-06-13T03:08:34.523Z,101105
2017-06-13T03:11:02.671Z,101103
2017-06-13T03:13:30.826Z,101109
2017-06-13T03:15:59.024Z,101099
2017-06-13T03:18:27.177Z,101113
2017-06-13T03:20:55.345Z,101105
2017-06-13T03:23:24.306Z,101108
2017-06-13T03:25:52.480Z,101116
2017-06-13T03:28:20.649Z,101117
2017-06-13T03:30:48.822Z,101109
2017-06-13T03:33:16.989Z,101127
2017-06-13T03:35:45.134Z,101123
2017-06-13T03:38:13.320Z,101129
2017-06-13T03:40:41.465Z,101126
2017-06-13T03:43:09.627Z,101126
2017-06-13T03:45:38.995Z,101130
2017-06-13T03:48:07.143Z,101132
2017-06-13T03:50:35.285Z,101126
2017-06-13T03:53:03.480Z,101117
2017-06-13T03:55:31.630Z,101133
2017-06-13T03:58:00.565Z,101127
2017-06-13T04:00:28.767Z,101133
2017-06-13T04:02:56.922Z,101139
2017-06-13T04:05:25.067Z,101134
2017-06-13T04:07:53.250Z,101136
2017-06-13T04:10:21.465Z,101141
2017-06-13T04:12:49.640Z,101143
2017-06-13T04:15:18.221Z,101139
2017-06-13T04:17:46.387Z,101147
2017-06-13T04:20:14.581Z,101139
2017-06-13T04:22:42.777Z,101146
2017-06-13T04:25:11.704Z,101152
2017-06-13T04:27:39.853Z,101144
2017-06-13T04:30:08.056Z,101157
2017-06-13T04:32:36.209Z,101161
2017-06-13T04:35:04.376Z,101150
2017-06-13T04:37:32.570Z,101157
2017-06-13T04:40:00.760Z,101148
2017-06-13T04:42:28.909Z,101161
2017-06-13T04:44:57.322Z,101163
2017-06-13T04:47:25.465Z,101164
2017-06-13T04:49:53.629Z,101161
2017-06-13T04:52:21.825Z,101164
2017-06-13T04:54:49.980Z,101168
2017-06-13T04:57:18.130Z,101170
2017-06-13T04:59:46.329Z,101171
2017-06-13T05:02:14.492Z,101168
2017-06-13T05:04:43.425Z,101171
2017-06-13T05:07:11.598Z,101174
2017-06-13T05:09:39.938Z,101180
2017-06-13T05:12:08.098Z,101184
2017-06-13T05:14:37.070Z,101188
2017-06-13T05:17:05.498Z,101180
2017-06-13T05:19:33.651Z,101185
2017-06-13T05:22:02.601Z,101184
2017-06-13T05:24:30.749Z,101187
2017-06-13T05:26:58.902Z,101191
2017-06-13T05:29:27.847Z,101189
2017-06-13T05:31:56.024Z,101183
2017-06-13T05:34:24.195Z,101186
2017-06-13T05:36:52.393Z,101186
2017-06-13T05:39:20.563Z,101189
2017-06-13T05:41:48.733Z,101190
2017-06-13T05:44:16.910Z,101192
2017-06-13T05:46:45.073Z,101193
2017-06-13T05:49:13.221Z,101199
2017-06-13T05:51:41.400Z,101195
2017-06-13T05:54:09.554Z,101201
2017-06-13T05:56:37.712Z,101202
2017-06-13T05:59:06.675Z,101201
2017-06-13T06:01:34.832Z,101208
2017-06-13T06:04:03.000Z,101203
2017-06-13T06:06:31.193Z,101202
2017-06-13T06:08:59.344Z,101209
2017-06-13T06:11:27.501Z,101209
2017-06-13T06:13:55.682Z,101212
2017-06-13T06:16:23.856Z,101213
2017-06-13T06:18:52.068Z,101227
2017-06-13T06:21:20.253Z,101218
2017-06-13T06:23:48.402Z,101212
2017-06-13T06:26:16.574Z,101223
2017-06-13T06:28:44.758Z,101220
2017-06-13T06:31:12.914Z,101230
2017-06-13T06:33:41.070Z,101234
2017-06-13T06:36:09.255Z,101222
2017-06-13T06:38:37.429Z,101228
2017-06-13T06:41:05.590Z,101229
2017-06-13T06:43:33.789Z,101233
2017-06-13T06:46:01.957Z,101231
2017-06-13T06:48:30.114Z,101245
2017-06-13T06:50:59.147Z,101236
2017-06-13T06:53:27.305Z,101240
2017-06-13T06:55:55.462Z,101246
2017-06-13T06:58:23.660Z,101248
2017-06-13T07:00:51.836Z,101250
2017-06-13T07:03:19.985Z,101239
2017-06-13T07:05:48.161Z,101248
2017-06-13T07:08:16.301Z,101252
2017-06-13T07:10:45.225Z,101264
2017-06-13T07:13:13.423Z,101253
2017-06-13T07:15:41.584Z,101264
2017-06-13T07:18:09.739Z,101265
2017-06-13T07:20:37.944Z,101269
2017-06-13T07:23:06.118Z,101282
2017-06-13T07:25:34.274Z,101278
2017-06-13T07:28:02.454Z,101284
2017-06-13T07:30:30.629Z,101292
2017-06-13T07:32:58.798Z,101295
2017-06-13T07:35:26.996Z,101304
2017-06-13T07:37:55.147Z,101292
2017-06-13T07:40:23.340Z,101290
2017-06-13T07:42:51.526Z,101306
2017-06-13T07:45:19.677Z,101296
2017-06-13T07:47:47.889Z,101306
2017-06-13T07:50:16.062Z,101312
2017-06-13T07:52:44.214Z,101315
2017-06-13T07:55:12.390Z,101313
2017-06-13T07:57:40.578Z,101308
2017-06-13T08:00:08.738Z,101315
2017-06-13T08:02:36.891Z,101311
2017-06-13T08:05:05.086Z,101319
2017-06-13T08:07:33.239Z,101315
2017-06-13T08:10:01.412Z,101310
2017-06-13T08:12:29.586Z,101310
2017-06-13T08:14:57.758Z,101316
2017-06-13T08:17:25.907Z,101302
2017-06-13T08:19:54.119Z,101304
2017-06-13T08:22:22.271Z,101306
2017-06-13T08:24:50.428Z,101306
2017-06-13T08:27:19.393Z,101305
2017-06-13T08:29:47.546Z,101304
2017-06-13T08:32:15.704Z,101308
2017-06-13T08:34:43.904Z,101317
2017-06-13T08:37:12.051Z,101325
2017-06-13T08:39:40.221Z,101329
2017-06-13T08:42:08.405Z,101339
2017-06-13T08:44:36.584Z,101328
2017-06-13T08:47:04.743Z,101320
2017-06-13T08:49:32.956Z,101342
2017-06-13T08:52:01.133Z,101343
2017-06-13T08:54:29.302Z,101337
2017-06-13T08:56:57.511Z,101332
2017-06-13T08:59:25.664Z,101337
2017-06-13T09:01:53.815Z,101336
2017-06-13T09:04:21.999Z,101339
2017-06-13T09:06:50.172Z,101339
2017-06-13T09:09:18.325Z,101336
2017-06-13T09:11:46.531Z,101349
2017-06-13T09:14:15.271Z,101343
2017-06-13T09:16:43.440Z,101344
2017-06-13T09:19:12.390Z,101347
2017-06-13T09:21:40.547Z,101337
2017-06-13T09:24:08.720Z,101350
2017-06-13T09:26:36.922Z,101355
2017-06-13T09:29:05.074Z,101351
2017-06-13T09:31:33.245Z,101363
2017-06-13T09:34:01.462Z,101358
2017-06-13T09:36:29.628Z,101357
2017-06-13T09:38:57.794Z,101359
2017-06-13T09:41:26.008Z,101362
2017-06-13T09:43:54.161Z,101356
2017-06-13T09:46:22.305Z,101358
2017-06-13T09:48:50.505Z,101357
2017-06-13T09:51:18.661Z,101355
2017-06-13T09:53:46.832Z,101349
2017-06-13T09:56:15.037Z,101349
2017-06-13T09:58:43.966Z,101361
2017-06-13T10:01:12.118Z,101363
2017-06-13T10:03:41.065Z,101365
2017-06-13T10:06:09.224Z,101374
2017-06-13T10:08:37.383Z,101360
2017-06-13T10:11:05.580Z,101377
2017-06-13T10:13:33.748Z,101378
2017-06-13T10:16:01.902Z,101384
2017-06-13T10:18:30.113Z,101386
2017-06-13T10:20:58.291Z,101380
2017-06-13T10:23:26.461Z,101379
2017-06-13T10:25:54.639Z,101373
2017-06-13T10:28:22.783Z,101377
2017-06-13T10:30:50.926Z,101379
2017-06-13T10:33:19.874Z,101390
2017-06-13T10:35:48.022Z,101392
2017-06-13T10:38:16.196Z,101393
2017-06-13T10:40:44.374Z,101391
2017-06-13T10:43:12.544Z,101400
2017-06-13T10:45:40.704Z,101398
2017-06-13T10:48:08.879Z,101409
2017-06-13T10:50:37.044Z,101415
2017-06-13T10:53:05.959Z,101421
2017-06-13T10:55:34.138Z,101419
2017-06-13T10:58:02.296Z,101428
2017-06-13T11:00:30.445Z,101424
2017-06-13T11:02:59.402Z,101426
2017-06-13T11:05:27.549Z,101438
2017-06-13T11:07:55.701Z,101442
2017-06-13T11:10:24.643Z,101446
2017-06-13T11:12:52.786Z,101441
2017-06-13T11:15:20.954Z,101435
2017-06-13T11:17:49.156Z,101441
2017-06-13T11:20:17.317Z,101441
2017-06-13T11:22:45.509Z,101443
2017-06-13T11:25:13.721Z,101447
2017-06-13T11:27:41.866Z,101448
2017-06-13T11:30:10.036Z,101450
2017-06-13T11:32:38.218Z,101451
2017-06-13T11:35:06.392Z,101449
2017-06-13T11:37:34.543Z,101448
2017-06-13T11:40:02.724Z,101450
2017-06-13T11:42:30.893Z,101443
2017-06-13T11:44:59.066Z,101449
2017-06-13T11:47:27.254Z,101460
2017-06-13T11:49:55.402Z,101455
2017-06-13T11:52:23.716Z,101453
2017-06-13T11:54:51.893Z,101458
2017-06-13T11:57:20.064Z,101460
2017-06-13T11:59:48.228Z,101454
2017-06-13T12:02:16.441Z,101467
2017-06-13T12:04:44.593Z,101460
2017-06-13T12:07:12.765Z,101461
2017-06-13T12:09:40.945Z,101461
2017-06-13T12:12:09.112Z,101472
2017-06-13T12:14:37.286Z,101480
2017-06-13T12:17:05.479Z,101474
2017-06-13T12:19:33.725Z,101470
2017-06-13T12:22:01.888Z,101486
2017-06-13T12:24:30.087Z,101465
2017-06-13T12:26:58.258Z,101472
2017-06-13T12:29:26.436Z,101477
2017-06-13T12:31:54.618Z,101478
2017-06-13T12:34:22.791Z,101482
2017-06-13T12:36:50.947Z,101481
2017-06-13T12:39:19.150Z,101479
2017-06-13T12:41:47.306Z,101472
2017-06-13T12:44:15.473Z,101472
2017-06-13T12:46:43.676Z,101469
2017-06-13T12:49:11.831Z,101466
2017-06-13T12:51:39.990Z,101465
2017-06-13T12:54:08.188Z,101473
2017-06-13T12:56:36.333Z,101468
2017-06-13T12:59:04.482Z,101475
2017-06-13T13:01:32.689Z,101472
2017-06-13T13:04:00.972Z,101473
2017-06-13T13:06:29.144Z,101470
2017-06-13T13:08:57.350Z,101467
2017-06-13T13:11:25.525Z,101482
2017-06-13T13:13:53.680Z,101482
2017-06-13T13:16:21.879Z,101483
2017-06-13T13:18:50.046Z,101484
2017-06-13T13:21:18.201Z,101481
2017-06-13T13:23:46.374Z,101488
2017-06-13T13:26:14.529Z,101494
2017-06-13T13:28:42.703Z,101490
2017-06-13T13:31:10.893Z,101499
2017-06-13T13:33:39.048Z,101502
2017-06-13T13:36:07.198Z,101498
2017-06-13T13:38:36.142Z,101510
2017-06-13T13:41:04.290Z,101504
2017-06-13T13:43:32.461Z,101505
2017-06-13T13:46:00.652Z,101514
2017-06-13T13:48:28.812Z,101512
2017-06-13T13:50:56.985Z,101511
2017-06-13T13:53:25.160Z,101502
2017-06-13T13:55:53.332Z,101521
2017-06-13T13:58:21.495Z,101528
2017-06-13T14:00:49.692Z,101522
2017-06-13T14:03:17.862Z,101526
2017-06-13T14:05:46.035Z,101530
2017-06-13T14:08:14.239Z,101541
2017-06-13T14:10:42.416Z,101536
2017-06-13T14:13:10.588Z,101543
2017-06-13T14:15:38.766Z,101535
2017-06-13T14:18:06.937Z,101546
2017-06-13T14:20:35.092Z,101536
2017-06-13T14:23:03.288Z,101549
2017-06-13T14:25:31.447Z,101552
2017-06-13T14:27:59.617Z,101546
2017-06-13T14:30:27.798Z,101552
2017-06-13T14:32:55.946Z,101548
2017-06-13T14:35:24.093Z,101547
2017-06-13T14:37:53.061Z,101546
2017-06-13T14:40:21.228Z,101547
2017-06-13T14:42:49.401Z,101539
2017-06-13T14:45:17.600Z,101545
2017-06-13T14:47:45.764Z,101542
2017-06-13T14:50:13.933Z,101537
2017-06-13T14:52:42.116Z,101535
2017-06-13T14:55:10.262Z,101547
2017-06-13T14:57:38.410Z,101549
2017-06-13T15:00:06.615Z,101553
2017-06-13T15:02:34.782Z,101552
2017-06-13T15:05:02.935Z,101556
2017-06-13T15:07:31.139Z,101544
2017-06-13T15:09:59.290Z,101554
2017-06-13T15:12:27.438Z,101541
2017-06-13T15:14:56.400Z,101538
2017-06-13T15:17:24.544Z,101533
2017-06-13T15:19:52.692Z,101540
2017-06-13T15:22:20.891Z,101554
2017-06-13T15:24:49.038Z,101550
2017-06-13T15:27:17.200Z,101557
2017-06-13T15:29:46.150Z,101550
2017-06-13T15:32:14.293Z,101560
2017-06-13T15:34:42.467Z,101545
2017-06-13T15:37:10.658Z,101565
2017-06-13T15:39:38.806Z,101557
2017-06-13T15:42:06.955Z,101567
2017-06-13T15:44:35.910Z,101560
2017-06-13T15:47:04.070Z,101558
2017-06-13T15:49:32.237Z,101555
2017-06-13T15:52:00.423Z,101560
2017-06-13T15:54:28.574Z,101565
2017-06-13T15:56:56.729Z,101564
2017-06-13T15:59:24.906Z,101554
2017-06-13T16:01:53.840Z,101562
2017-06-13T16:04:21.994Z,101558
2017-06-13T16:06:50.172Z,101557
2017-06-13T16:09:18.317Z,101569
2017-06-13T16:11:46.462Z,101568
2017-06-13T16:14:14.643Z,101579
2017-06-13T16:16:42.794Z,101571
2017-06-13T16:19:10.965Z,101561
2017-06-13T16:21:39.146Z,101570
2017-06-13T16:24:07.293Z,101568
2017-06-13T16:26:35.453Z,101578
2017-06-13T16:29:03.681Z,101558
2017-06-13T16:31:31.830Z,101555
2017-06-13T16:33:59.978Z,101551
2017-06-13T16:36:28.409Z,101545
2017-06-13T16:38:56.577Z,101557
2017-06-13T16:41:24.735Z,101551
2017-06-13T16:43:52.920Z,101558
2017-06-13T16:46:21.065Z,101549
2017-06-13T16:48:49.215Z,101550
2017-06-13T16:51:18.161Z,101553
2017-06-13T16:53:46.321Z,101547
2017-06-13T16:56:14.488Z,101548
2017-06-13T16:58:42.683Z,101546
2017-06-13T17:01:10.854Z,101559
2017-06-13T17:03:39.006Z,101553
2017-06-13T17:06:07.212Z,101550
2017-06-13T17:08:35.376Z,101546
2017-06-13T17:11:03.537Z,101555
2017-06-13T17:13:31.726Z,101560
2017-06-13T17:15:59.897Z,101559
2017-06-13T17:18:28.066Z,101558
2017-06-13T17:20:56.249Z,101556
2017-06-13T17:23:24.398Z,101566
2017-06-13T17:25:52.566Z,101562
2017-06-13T17:28:20.833Z,101565
2017-06-13T17:30:48.990Z,101572
2017-06-13T17:33:17.917Z,101562
2017-06-13T17:35:46.117Z,101568
2017-06-13T17:38:14.376Z,101582
2017-06-13T17:40:42.521Z,101578
2017-06-13T17:43:10.750Z,101568
2017-06-13T17:45:38.940Z,101572
2017-06-13T17:48:07.098Z,101575
2017-06-13T17:50:35.310Z,101567
2017-06-13T17:53:04.241Z,101576
2017-06-13T17:55:32.435Z,101575
2017-06-13T17:58:01.442Z,101572
2017-06-13T18:00:29.596Z,101572
2017-06-13T18:02:57.763Z,101576
2017-06-13T18:05:25.992Z,101582
2017-06-13T18:07:54.370Z,101581
2017-06-13T18:10:22.564Z,101573
2017-06-13T18:12:50.789Z,101575
2017-06-13T18:15:19.780Z,101575
2017-06-13T18:20:27.354Z,101577
2017-06-13T18:22:55.547Z,101572
2017-06-13T18:25:24.469Z,101576
2017-06-13T18:27:54.322Z,101572
2017-06-13T18:30:22.605Z,101567
2017-06-13T18:32:50.765Z,101573
2017-06-13T18:35:18.983Z,101570
2017-06-13T18:37:47.181Z,101562
2017-06-13T18:40:16.152Z,101570
2017-06-13T18:42:44.370Z,101567
2017-06-13T18:45:12.573Z,101573
2017-06-13T18:47:40.734Z,101577
2017-06-13T18:50:08.909Z,101582
2017-06-13T18:52:37.085Z,101579
2017-06-13T18:55:05.246Z,101580
2017-06-13T18:57:33.433Z,101584
2017-06-13T19:00:01.677Z,101583
2017-06-13T19:02:30.635Z,101593
2017-06-13T19:04:58.789Z,101590
2017-06-13T19:07:26.966Z,101597
2017-06-13T19:09:55.117Z,101596
2017-06-13T19:12:23.261Z,101603
2017-06-13T19:14:52.234Z,101600
2017-06-13T19:17:20.400Z,101599
2017-06-13T19:19:48.569Z,101608
2017-06-13T19:22:16.750Z,101602
2017-06-13T19:24:44.919Z,101612
2017-06-13T19:27:13.113Z,101602
2017-06-13T19:29:41.290Z,101595
2017-06-13T19:32:09.464Z,101601
2017-06-13T19:34:37.620Z,101614
2017-06-13T19:37:05.837Z,101616
2017-06-13T19:39:34.007Z,101624
2017-06-13T19:42:02.164Z,101623
2017-06-13T19:44:30.346Z,101625
2017-06-13T19:46:58.513Z,101625
2017-06-13T19:49:26.668Z,101617
2017-06-13T19:51:54.878Z,101633
2017-06-13T19:54:23.021Z,101626
2017-06-13T19:56:51.185Z,101632
2017-06-13T19:59:19.364Z,101632
2017-06-13T20:01:47.515Z,101622
2017-06-13T20:04:15.680Z,101620
2017-06-13T20:06:43.869Z,101630
2017-06-13T20:09:12.044Z,101632
2017-06-13T20:11:40.225Z,101640
2017-06-13T20:14:08.433Z,101639
2017-06-13T20:16:36.577Z,101642
2017-06-13T20:19:04.722Z,101650
2017-06-13T20:21:49.381Z,101656
2017-06-13T20:24:18.338Z,101649
2017-06-13T20:26:46.493Z,101655
2017-06-13T20:29:14.693Z,101653
2017-06-13T20:31:42.865Z,101650
2017-06-13T20:34:11.038Z,101659
2017-06-13T20:36:40.062Z,101654
2017-06-13T20:39:08.214Z,101644
2017-06-13T20:41:36.384Z,101659
2017-06-13T20:44:04.567Z,101667
2017-06-13T20:46:32.731Z,101661
2017-06-13T20:49:00.936Z,101662
2017-06-13T20:51:29.907Z,101656
2017-06-13T20:53:58.089Z,101649
2017-06-13T20:56:26.266Z,101666
2017-06-13T20:58:54.470Z,101659
2017-06-13T21:01:22.654Z,101656
2017-06-13T21:03:50.834Z,101664
2017-06-13T21:06:19.044Z,101662
2017-06-13T21:08:47.201Z,101668
2017-06-13T21:11:15.399Z,101667
2017-06-13T21:13:43.660Z,101664
2017-06-13T21:16:11.888Z,101661
2017-06-13T21:18:40.852Z,101665
2017-06-13T21:21:09.057Z,101660
2017-06-13T21:23:37.991Z,101664
2017-06-13T21:26:06.161Z,101670
2017-06-13T21:28:34.369Z,101671
2017-06-13T21:31:02.544Z,101666
2017-06-13T21:33:30.717Z,101675
2017-06-13T21:35:58.897Z,101670
2017-06-13T21:38:27.068Z,101665
2017-06-13T21:40:55.236Z,101660
2017-06-13T21:43:23.433Z,101665
2017-06-13T21:45:53.204Z,101662
2017-06-13T21:48:21.355Z,101671
2017-06-13T21:50:49.530Z,101659
2017-06-13T21:53:17.693Z,101661
2017-06-13T21:55:45.879Z,101669
2017-06-13T21:58:14.070Z,101668
2017-06-13T22:00:42.238Z,101670
2017-06-13T22:03:10.443Z,101672
2017-06-13T22:05:38.647Z,101682
2017-06-13T22:08:07.561Z,101679
2017-06-13T22:10:35.735Z,101686
2017-06-13T22:13:03.952Z,101680
2017-06-13T22:15:32.128Z,101682
2017-06-13T22:18:00.304Z,101695
2017-06-13T22:20:28.487Z,101694
2017-06-13T22:22:56.648Z,101691
2017-06-13T22:25:24.809Z,101688
2017-06-13T22:27:53.004Z,101693
2017-06-13T22:30:21.159Z,101699
2017-06-13T22:32:49.363Z,101697
2017-06-13T22:35:17.597Z,101693
2017-06-13T22:37:45.768Z,101690
2017-06-13T22:40:13.923Z,101693
2017-06-13T22:42:42.895Z,101695
2017-06-13T22:45:11.066Z,101703
2017-06-13T22:47:39.233Z,101699
2017-06-13T22:50:07.412Z,101709
2017-06-13T22:52:35.602Z,101700
2017-06-13T22:55:04.549Z,101712
2017-06-13T22:57:32.741Z,101715
2017-06-13T23:00:00.927Z,101717
2017-06-13T23:02:29.859Z,101713
2017-06-13T23:04:58.042Z,101716
2017-06-13T23:07:26.195Z,101712
2017-06-13T23:09:55.107Z,101709
2017-06-13T23:12:23.302Z,101708
2017-06-13T23:14:51.664Z,101710
2017-06-13T23:17:19.825Z,101711
2017-06-13T23:19:48.025Z,101712
2017-06-13T23:22:16.178Z,101707
2017-06-13T23:24:44.331Z,101703
2017-06-13T23:27:13.270Z,101709
2017-06-13T23:29:41.423Z,101710
2017-06-13T23:32:09.596Z,101711
2017-06-13T23:34:37.784Z,101708
2017-06-13T23:37:05.931Z,101715
2017-06-13T23:39:34.865Z,101713
2017-06-13T23:42:03.064Z,101713
2017-06-13T23:44:31.224Z,101725
2017-06-13T23:46:59.374Z,101720
2017-06-13T23:49:27.551Z,101717
2017-06-13T23:51:55.719Z,101720
2017-06-13T23:54:23.896Z,101719
2017-06-13T23:56:52.082Z,101710
2017-06-13T23:59:20.238Z,101716
